Hlavní strana
METAR-TAF:

METAR-TAF

Letiště :

Bluefields, Nikaragua

zeměpisná šířka: 12-00N, zeměpisná délka: 083-46W, výška: 5 m

Aktuální stav počasí

Zpráva byla vytvořena před 9 hodinami a 17 minutami, v 23:00 UTC
Severní vítr 8 kt
Teplota 25°C
Vlhkost vzduchu 79%
Tlak 1014 hPa
Viditelnost: 4000 m
Oblačno až skoro zataženo ve výšce 1600 ft
Polojasno ve výšce 7000 ft
slabé mrholení

METAR: MNBL 232300Z 36008KT 4000 -DZ BKN016 SCT070 25/21 Q1014

Čas: 02:17 (08:17 UTC)

Předpověď počasí

Zpráva byla vytvořena před 11 hodinami a 27 minutami, v 20:50 UTC
Předpověď platná od 24 v 00 UTC do 24 v 24 UTC
Severní vítr 10 kt
Viditelnost: 7000 m
Oblačno až skoro zataženo ve výšce 1600 ft
Polojasno ve výšce 7000 ft
Dočasný
od 24 v 06 UTC do 24 v 12 UTC
Severovýchodní vítr 8 kt
Viditelnost 10 km a více
Oblačno až skoro zataženo ve výšce 1700 ft

TAF: MNBL 232050Z 2400/2424 36010KT 7000 VCRA/-DZ BKN016 SCT070 TEMPO 2406/2412 04008KT 9999 BKN017

Stav a předpovědi počasí z více než 4 000 letišť (zprávy METAR a TAF).

Červené a žluté tečky na mapě představují dostupné meteorologické stanice.

Když kurzor umístíte na tečku, zobrazí se název stanice.

Pak kliknutím zobrazíte stav a předpověď počasí.

Chcete-li změnit mapu, kliknutím na zelené tlačítko se znaménkem +mapu přiblížíte, kliknutím na zelené tlačítko se znaménkem – mapu oddálíte a kliknutím na zelené šipky přejdete na sousední mapy.


METAR-TAF: